sensor_id;sensor_type;location;lat;lon;timestamp;pressure;altitude;pressure_sealevel;temperature;humidity
76195;BME280;64964;48.694;21.206;2023-12-14T00:02:11;96480.97;;;4.30;77.95
76195;BME280;64964;48.694;21.206;2023-12-14T00:04:37;96494.56;;;4.34;77.73
76195;BME280;64964;48.694;21.206;2023-12-14T00:07:02;96483.13;;;4.35;77.79
76195;BME280;64964;48.694;21.206;2023-12-14T00:09:28;96494.41;;;4.35;78.07
76195;BME280;64964;48.694;21.206;2023-12-14T00:11:53;96486.56;;;4.35;77.99
76195;BME280;64964;48.694;21.206;2023-12-14T00:14:18;96485.41;;;4.30;78.12
76195;BME280;64964;48.694;21.206;2023-12-14T00:16:44;96474.47;;;4.26;78.14
76195;BME280;64964;48.694;21.206;2023-12-14T00:19:09;96483.47;;;4.32;77.91
76195;BME280;64964;48.694;21.206;2023-12-14T00:21:34;96496.22;;;4.35;77.93
76195;BME280;64964;48.694;21.206;2023-12-14T00:24:00;96492.28;;;4.31;78.02
76195;BME280;64964;48.694;21.206;2023-12-14T00:26:25;96503.88;;;4.36;78.17
76195;BME280;64964;48.694;21.206;2023-12-14T00:28:50;96514.97;;;4.38;77.94
76195;BME280;64964;48.694;21.206;2023-12-14T00:31:16;96497.84;;;4.28;78.01
76195;BME280;64964;48.694;21.206;2023-12-14T00:33:42;96515.66;;;4.32;78.07
76195;BME280;64964;48.694;21.206;2023-12-14T00:36:08;96532.78;;;4.43;77.89
76195;BME280;64964;48.694;21.206;2023-12-14T00:38:34;96526.75;;;4.42;77.68
76195;BME280;64964;48.694;21.206;2023-12-14T00:40:59;96535.75;;;4.40;77.77
76195;BME280;64964;48.694;21.206;2023-12-14T00:43:24;96540.50;;;4.44;77.82
76195;BME280;64964;48.694;21.206;2023-12-14T00:45:50;96535.28;;;4.36;77.79
76195;BME280;64964;48.694;21.206;2023-12-14T00:48:15;96558.47;;;4.47;77.76
76195;BME280;64964;48.694;21.206;2023-12-14T00:50:40;96558.81;;;4.44;77.55
76195;BME280;64964;48.694;21.206;2023-12-14T00:53:06;96565.66;;;4.45;77.78
76195;BME280;64964;48.694;21.206;2023-12-14T00:55:31;96575.50;;;4.43;77.70
76195;BME280;64964;48.694;21.206;2023-12-14T00:57:57;96570.41;;;4.42;77.98
76195;BME280;64964;48.694;21.206;2023-12-14T01:00:22;96574.84;;;4.41;78.04
76195;BME280;64964;48.694;21.206;2023-12-14T01:02:48;96592.16;;;4.42;77.70
76195;BME280;64964;48.694;21.206;2023-12-14T01:05:13;96583.81;;;4.39;77.71
76195;BME280;64964;48.694;21.206;2023-12-14T01:07:39;96582.38;;;4.28;77.34
76195;BME280;64964;48.694;21.206;2023-12-14T01:10:05;96597.41;;;4.18;77.83
76195;BME280;64964;48.694;21.206;2023-12-14T01:12:30;96588.25;;;4.14;78.29
76195;BME280;64964;48.694;21.206;2023-12-14T01:14:55;96600.38;;;4.15;78.58
76195;BME280;64964;48.694;21.206;2023-12-14T01:17:21;96593.34;;;4.15;78.32
76195;BME280;64964;48.694;21.206;2023-12-14T01:19:46;96596.75;;;4.16;78.45
76195;BME280;64964;48.694;21.206;2023-12-14T01:22:12;96596.44;;;4.19;78.42
76195;BME280;64964;48.694;21.206;2023-12-14T01:24:37;96596.44;;;4.19;78.33
76195;BME280;64964;48.694;21.206;2023-12-14T01:27:02;96592.16;;;4.18;78.39
76195;BME280;64964;48.694;21.206;2023-12-14T01:29:28;96595.47;;;4.20;78.47
76195;BME280;64964;48.694;21.206;2023-12-14T01:31:53;96587.44;;;4.21;78.24
76195;BME280;64964;48.694;21.206;2023-12-14T01:34:19;96570.59;;;4.16;78.18
76195;BME280;64964;48.694;21.206;2023-12-14T01:36:44;96576.66;;;4.24;77.79
76195;BME280;64964;48.694;21.206;2023-12-14T01:39:09;96570.94;;;4.21;78.05
76195;BME280;64964;48.694;21.206;2023-12-14T01:41:35;96575.03;;;4.23;77.65
76195;BME280;64964;48.694;21.206;2023-12-14T01:44:00;96564.88;;;4.20;77.81
76195;BME280;64964;48.694;21.206;2023-12-14T01:46:25;96562.09;;;4.22;78.20
76195;BME280;64964;48.694;21.206;2023-12-14T01:48:51;96561.13;;;4.23;78.20
76195;BME280;64964;48.694;21.206;2023-12-14T01:51:18;96548.69;;;4.25;77.97
76195;BME280;64964;48.694;21.206;2023-12-14T01:53:44;96537.91;;;4.20;78.27
76195;BME280;64964;48.694;21.206;2023-12-14T01:56:10;96551.47;;;4.23;78.15
76195;BME280;64964;48.694;21.206;2023-12-14T01:58:35;96540.34;;;4.21;77.88
76195;BME280;64964;48.694;21.206;2023-12-14T02:01:11;96551.81;;;4.20;78.09
76195;BME280;64964;48.694;21.206;2023-12-14T02:03:50;96553.59;;;4.20;78.19
76195;BME280;64964;48.694;21.206;2023-12-14T02:06:16;96557.69;;;4.22;78.11
76195;BME280;64964;48.694;21.206;2023-12-14T02:08:41;96550.66;;;4.23;78.04
76195;BME280;64964;48.694;21.206;2023-12-14T02:11:06;96556.72;;;4.23;77.92
76195;BME280;64964;48.694;21.206;2023-12-14T02:13:32;96561.78;;;4.25;78.28
76195;BME280;64964;48.694;21.206;2023-12-14T02:15:58;96554.41;;;4.20;78.06
76195;BME280;64964;48.694;21.206;2023-12-14T02:18:23;96562.44;;;4.27;77.92
76195;BME280;64964;48.694;21.206;2023-12-14T02:20:48;96564.69;;;4.30;77.87
76195;BME280;64964;48.694;21.206;2023-12-14T02:23:14;96554.59;;;4.27;78.09
76195;BME280;64964;48.694;21.206;2023-12-14T02:25:39;96564.69;;;4.30;77.96
76195;BME280;64964;48.694;21.206;2023-12-14T02:28:04;96564.69;;;4.30;77.93
76195;BME280;64964;48.694;21.206;2023-12-14T02:30:30;96567.97;;;4.32;78.21
76195;BME280;64964;48.694;21.206;2023-12-14T02:32:55;96572.72;;;4.29;77.87
76195;BME280;64964;48.694;21.206;2023-12-14T02:35:20;96573.38;;;4.31;77.95
76195;BME280;64964;48.694;21.206;2023-12-14T02:37:47;96580.88;;;4.34;77.91
76195;BME280;64964;48.694;21.206;2023-12-14T02:40:13;96580.75;;;4.27;77.96
76195;BME280;64964;48.694;21.206;2023-12-14T02:42:38;96590.72;;;4.32;78.05
76195;BME280;64964;48.694;21.206;2023-12-14T02:45:04;96592.50;;;4.31;78.03
76195;BME280;64964;48.694;21.206;2023-12-14T02:47:30;96599.56;;;4.31;78.08
76195;BME280;64964;48.694;21.206;2023-12-14T02:49:55;96589.22;;;4.29;78.23
76195;BME280;64964;48.694;21.206;2023-12-14T02:52:21;96584.81;;;4.21;77.92
76195;BME280;64964;48.694;21.206;2023-12-14T02:54:46;96572.41;;;4.23;78.01
76195;BME280;64964;48.694;21.206;2023-12-14T02:57:11;96582.38;;;4.28;77.72
76195;BME280;64964;48.694;21.206;2023-12-14T02:59:37;96575.66;;;4.25;77.84
76195;BME280;64964;48.694;21.206;2023-12-14T03:02:02;96573.53;;;4.29;77.72
76195;BME280;64964;48.694;21.206;2023-12-14T03:04:28;96583.84;;;4.31;77.79
76195;BME280;64964;48.694;21.206;2023-12-14T03:06:53;96576.97;;;4.30;77.80
76195;BME280;64964;48.694;21.206;2023-12-14T03:09:19;96559.00;;;4.18;78.22
76195;BME280;64964;48.694;21.206;2023-12-14T03:11:45;96572.72;;;4.29;77.89
76195;BME280;64964;48.694;21.206;2023-12-14T03:14:10;96564.88;;;4.29;78.33
76195;BME280;64964;48.694;21.206;2023-12-14T03:16:36;96562.25;;;4.29;78.10
76195;BME280;64964;48.694;21.206;2023-12-14T03:19:02;96569.94;;;4.30;78.29
76195;BME280;64964;48.694;21.206;2023-12-14T03:21:28;96563.88;;;4.30;77.99
76195;BME280;64964;48.694;21.206;2023-12-14T03:23:54;96559.81;;;4.27;77.84
76195;BME280;64964;48.694;21.206;2023-12-14T03:26:19;96543.78;;;4.14;78.08
76195;BME280;64964;48.694;21.206;2023-12-14T03:28:45;96557.53;;;4.24;78.13
76195;BME280;64964;48.694;21.206;2023-12-14T03:31:11;96574.22;;;4.31;78.02
76195;BME280;64964;48.694;21.206;2023-12-14T03:33:37;96581.38;;;4.29;78.01
76195;BME280;64964;48.694;21.206;2023-12-14T03:36:03;96587.78;;;4.27;78.28
76195;BME280;64964;48.694;21.206;2023-12-14T03:38:28;96592.34;;;4.33;78.03
76195;BME280;64964;48.694;21.206;2023-12-14T03:40:53;96597.25;;;4.36;77.97
76195;BME280;64964;48.694;21.206;2023-12-14T03:43:19;96604.28;;;4.35;78.22
76195;BME280;64964;48.694;21.206;2023-12-14T03:45:44;96611.16;;;4.36;77.98
76195;BME280;64964;48.694;21.206;2023-12-14T03:48:10;96622.09;;;4.40;78.33
76195;BME280;64964;48.694;21.206;2023-12-14T03:50:35;96632.56;;;4.40;78.37
76195;BME280;64964;48.694;21.206;2023-12-14T03:53:01;96637.63;;;4.41;78.38
76195;BME280;64964;48.694;21.206;2023-12-14T03:55:26;96643.53;;;4.43;78.57
76195;BME280;64964;48.694;21.206;2023-12-14T03:57:52;96647.91;;;4.43;78.37
76195;BME280;64964;48.694;21.206;2023-12-14T04:00:17;96651.84;;;4.47;78.31
76195;BME280;64964;48.694;21.206;2023-12-14T04:02:42;96660.38;;;4.49;77.73
76195;BME280;64964;48.694;21.206;2023-12-14T04:05:09;96665.28;;;4.44;77.59
76195;BME280;64964;48.694;21.206;2023-12-14T04:07:38;96660.84;;;4.36;77.64
76195;BME280;64964;48.694;21.206;2023-12-14T04:10:09;96664.94;;;4.31;77.83
76195;BME280;64964;48.694;21.206;2023-12-14T04:12:36;96651.03;;;4.22;77.96
76195;BME280;64964;48.694;21.206;2023-12-14T04:15:02;96675.88;;;4.34;78.05
76195;BME280;64964;48.694;21.206;2023-12-14T04:17:27;96678.00;;;4.39;77.75
76195;BME280;64964;48.694;21.206;2023-12-14T04:19:53;96652.00;;;4.21;77.82
76195;BME280;64964;48.694;21.206;2023-12-14T04:22:18;96674.44;;;4.40;77.90
76195;BME280;64964;48.694;21.206;2023-12-14T04:24:43;96679.50;;;4.41;77.29
76195;BME280;64964;48.694;21.206;2023-12-14T04:27:09;96681.94;;;4.43;77.58
76195;BME280;64964;48.694;21.206;2023-12-14T04:29:34;96692.41;;;4.43;78.02
76195;BME280;64964;48.694;21.206;2023-12-14T04:32:00;96684.56;;;4.43;78.31
76195;BME280;64964;48.694;21.206;2023-12-14T04:34:25;96683.25;;;4.39;78.16
76195;BME280;64964;48.694;21.206;2023-12-14T04:36:50;96683.25;;;4.39;77.72
76195;BME280;64964;48.694;21.206;2023-12-14T04:39:18;96693.25;;;4.43;77.76
76195;BME280;64964;48.694;21.206;2023-12-14T04:41:43;96685.22;;;4.37;77.92
76195;BME280;64964;48.694;21.206;2023-12-14T04:44:09;96702.06;;;4.42;77.63
76195;BME280;64964;48.694;21.206;2023-12-14T04:46:35;96674.25;;;4.17;77.60
76195;BME280;64964;48.694;21.206;2023-12-14T04:49:00;96727.25;;;4.43;77.55
76195;BME280;64964;48.694;21.206;2023-12-14T04:51:26;96731.81;;;4.41;77.71
76195;BME280;64964;48.694;21.206;2023-12-14T04:53:51;96723.63;;;4.28;77.77
76195;BME280;64964;48.694;21.206;2023-12-14T04:56:16;96744.75;;;4.35;77.55
76195;BME280;64964;48.694;21.206;2023-12-14T04:58:42;96742.59;;;4.30;77.69
76195;BME280;64964;48.694;21.206;2023-12-14T05:01:07;96744.88;;;4.25;77.74
76195;BME280;64964;48.694;21.206;2023-12-14T05:03:34;96750.28;;;4.23;78.01
76195;BME280;64964;48.694;21.206;2023-12-14T05:06:00;96757.16;;;4.24;78.29
76195;BME280;64964;48.694;21.206;2023-12-14T05:08:25;96742.75;;;4.20;77.81
76195;BME280;64964;48.694;21.206;2023-12-14T05:10:51;96743.75;;;4.28;78.22
76195;BME280;64964;48.694;21.206;2023-12-14T05:13:16;96758.28;;;4.30;77.71
76195;BME280;64964;48.694;21.206;2023-12-14T05:15:42;96755.69;;;4.30;77.93
76195;BME280;64964;48.694;21.206;2023-12-14T05:18:07;96756.19;;;4.34;77.68
76195;BME280;64964;48.694;21.206;2023-12-14T05:20:34;96718.38;;;4.12;77.54
76195;BME280;64964;48.694;21.206;2023-12-14T05:22:59;96752.59;;;4.35;77.70
76195;BME280;64964;48.694;21.206;2023-12-14T05:25:25;96750.44;;;4.30;77.54
76195;BME280;64964;48.694;21.206;2023-12-14T05:27:50;96751.63;;;4.36;77.60
76195;BME280;64964;48.694;21.206;2023-12-14T05:30:16;96744.25;;;4.31;77.41
76195;BME280;64964;48.694;21.206;2023-12-14T05:32:41;96758.16;;;4.40;77.92
76195;BME280;64964;48.694;21.206;2023-12-14T05:35:07;96759.13;;;4.39;77.85
76195;BME280;64964;48.694;21.206;2023-12-14T05:37:32;96755.88;;;4.37;77.63
76195;BME280;64964;48.694;21.206;2023-12-14T05:39:58;96761.91;;;4.37;77.55
76195;BME280;64964;48.694;21.206;2023-12-14T05:42:23;96731.44;;;4.12;77.79
76195;BME280;64964;48.694;21.206;2023-12-14T05:44:49;96776.78;;;4.37;78.12
76195;BME280;64964;48.694;21.206;2023-12-14T05:47:14;96770.56;;;4.30;77.50
76195;BME280;64964;48.694;21.206;2023-12-14T05:49:43;96786.44;;;4.36;77.68
76195;BME280;64964;48.694;21.206;2023-12-14T05:52:09;96782.34;;;4.34;77.80
76195;BME280;64964;48.694;21.206;2023-12-14T05:54:38;96789.53;;;4.32;77.73
76195;BME280;64964;48.694;21.206;2023-12-14T05:57:04;96794.94;;;4.38;78.06
76195;BME280;64964;48.694;21.206;2023-12-14T05:59:30;96772.34;;;4.21;77.85
76195;BME280;64964;48.694;21.206;2023-12-14T06:01:59;96812.59;;;4.36;77.60
76195;BME280;64964;48.694;21.206;2023-12-14T06:04:26;96807.69;;;4.33;77.93
76195;BME280;64964;48.694;21.206;2023-12-14T06:06:51;96799.69;;;4.27;77.71
76195;BME280;64964;48.694;21.206;2023-12-14T06:09:17;96825.69;;;4.36;78.09
76195;BME280;64964;48.694;21.206;2023-12-14T06:11:44;96814.25;;;4.37;77.87
76195;BME280;64964;48.694;21.206;2023-12-14T06:14:10;96811.13;;;4.34;77.52
76195;BME280;64964;48.694;21.206;2023-12-14T06:16:35;96809.31;;;4.34;77.84
76195;BME280;64964;48.694;21.206;2023-12-14T06:19:00;96820.78;;;4.41;77.22
76195;BME280;64964;48.694;21.206;2023-12-14T06:21:26;96826.84;;;4.42;77.58
76195;BME280;64964;48.694;21.206;2023-12-14T06:23:54;96814.41;;;4.36;77.69
76195;BME280;64964;48.694;21.206;2023-12-14T06:26:20;96830.28;;;4.42;77.79
76195;BME280;64964;48.694;21.206;2023-12-14T06:28:45;96832.75;;;4.44;78.05
76195;BME280;64964;48.694;21.206;2023-12-14T06:31:14;96843.72;;;4.47;77.87
76195;BME280;64964;48.694;21.206;2023-12-14T06:33:39;96834.38;;;4.45;77.90
76195;BME280;64964;48.694;21.206;2023-12-14T06:36:06;96849.09;;;4.46;77.70
76195;BME280;64964;48.694;21.206;2023-12-14T06:38:32;96845.66;;;4.45;78.11
76195;BME280;64964;48.694;21.206;2023-12-14T06:40:57;96849.09;;;4.46;78.28
76195;BME280;64964;48.694;21.206;2023-12-14T06:43:23;96859.44;;;4.47;77.97
76195;BME280;64964;48.694;21.206;2023-12-14T06:45:48;96859.25;;;4.49;78.14
76195;BME280;64964;48.694;21.206;2023-12-14T06:48:13;96859.44;;;4.47;78.04
76195;BME280;64964;48.694;21.206;2023-12-14T06:50:39;96869.03;;;4.47;78.09
76195;BME280;64964;48.694;21.206;2023-12-14T06:53:04;96872.16;;;4.50;77.97
76195;BME280;64964;48.694;21.206;2023-12-14T06:55:30;96872.16;;;4.50;78.04
76195;BME280;64964;48.694;21.206;2023-12-14T06:57:55;96858.41;;;4.40;78.39
76195;BME280;64964;48.694;21.206;2023-12-14T07:00:20;96885.25;;;4.50;78.08
76195;BME280;64964;48.694;21.206;2023-12-14T07:02:46;96888.22;;;4.47;78.13
76195;BME280;64964;48.694;21.206;2023-12-14T07:05:11;96889.53;;;4.52;78.35
76195;BME280;64964;48.694;21.206;2023-12-14T07:07:36;96890.34;;;4.52;78.18
76195;BME280;64964;48.694;21.206;2023-12-14T07:10:02;96907.38;;;4.56;78.14
76195;BME280;64964;48.694;21.206;2023-12-14T07:12:27;96867.34;;;4.30;77.97
76195;BME280;64964;48.694;21.206;2023-12-14T07:14:53;96924.41;;;4.60;77.94
76195;BME280;64964;48.694;21.206;2023-12-14T07:17:18;96924.41;;;4.60;78.12
76195;BME280;64964;48.694;21.206;2023-12-14T07:19:43;96925.03;;;4.62;78.02
76195;BME280;64964;48.694;21.206;2023-12-14T07:22:09;96930.44;;;4.61;77.95
76195;BME280;64964;48.694;21.206;2023-12-14T07:24:34;96938.31;;;4.61;78.11
76195;BME280;64964;48.694;21.206;2023-12-14T07:26:59;96946.66;;;4.64;78.28
76195;BME280;64964;48.694;21.206;2023-12-14T07:29:25;96941.88;;;4.60;78.11
76195;BME280;64964;48.694;21.206;2023-12-14T07:31:51;96952.38;;;4.68;78.36
76195;BME280;64964;48.694;21.206;2023-12-14T07:34:16;96950.44;;;4.70;78.23
76195;BME280;64964;48.694;21.206;2023-12-14T07:36:41;96955.69;;;4.70;78.12
76195;BME280;64964;48.694;21.206;2023-12-14T07:39:07;96964.84;;;4.74;78.21
76195;BME280;64964;48.694;21.206;2023-12-14T07:41:34;96962.88;;;4.76;78.05
76195;BME280;64964;48.694;21.206;2023-12-14T07:44:00;96975.84;;;4.78;78.38
76195;BME280;64964;48.694;21.206;2023-12-14T07:46:26;96975.66;;;4.79;78.25
76195;BME280;64964;48.694;21.206;2023-12-14T07:48:51;96974.34;;;4.75;78.35
76195;BME280;64964;48.694;21.206;2023-12-14T07:51:17;96971.94;;;4.82;78.50
76195;BME280;64964;48.694;21.206;2023-12-14T07:53:42;96979.09;;;4.80;78.13
76195;BME280;64964;48.694;21.206;2023-12-14T07:56:08;96985.66;;;4.84;78.18
76195;BME280;64964;48.694;21.206;2023-12-14T07:58:34;96977.50;;;4.87;78.27
76195;BME280;64964;48.694;21.206;2023-12-14T08:00:59;96992.41;;;4.86;78.12
76195;BME280;64964;48.694;21.206;2023-12-14T08:03:25;96993.22;;;4.87;77.85
76195;BME280;64964;48.694;21.206;2023-12-14T08:05:50;96994.03;;;4.87;78.03
76195;BME280;64964;48.694;21.206;2023-12-14T08:08:16;96993.72;;;4.90;77.98
76195;BME280;64964;48.694;21.206;2023-12-14T08:10:41;96998.13;;;4.90;78.10
76195;BME280;64964;48.694;21.206;2023-12-14T08:13:06;96995.00;;;4.86;78.17
76195;BME280;64964;48.694;21.206;2023-12-14T08:15:32;97008.28;;;4.93;77.99
76195;BME280;64964;48.694;21.206;2023-12-14T08:17:57;97009.94;;;4.94;78.20
76195;BME280;64964;48.694;21.206;2023-12-14T08:20:23;97011.56;;;4.95;77.98
76195;BME280;64964;48.694;21.206;2023-12-14T08:22:48;97019.94;;;4.98;78.07
76195;BME280;64964;48.694;21.206;2023-12-14T08:25:14;97016.97;;;5.02;78.01
76195;BME280;64964;48.694;21.206;2023-12-14T08:27:40;97013.88;;;4.98;78.26
76195;BME280;64964;48.694;21.206;2023-12-14T08:30:06;97031.41;;;5.06;77.64
76195;BME280;64964;48.694;21.206;2023-12-14T08:32:32;97035.50;;;5.08;77.88
76195;BME280;64964;48.694;21.206;2023-12-14T08:34:58;97037.00;;;5.11;77.95
76195;BME280;64964;48.694;21.206;2023-12-14T08:37:23;97039.28;;;5.14;78.18
76195;BME280;64964;48.694;21.206;2023-12-14T08:39:48;97021.09;;;5.04;78.15
76195;BME280;64964;48.694;21.206;2023-12-14T08:42:14;97036.34;;;5.17;77.99
76195;BME280;64964;48.694;21.206;2023-12-14T08:44:39;97030.97;;;5.18;78.17
76195;BME280;64964;48.694;21.206;2023-12-14T08:47:05;97029.47;;;5.16;78.13
76195;BME280;64964;48.694;21.206;2023-12-14T08:49:30;97040.63;;;5.18;77.52
76195;BME280;64964;48.694;21.206;2023-12-14T08:51:56;97046.22;;;5.23;77.84
76195;BME280;64964;48.694;21.206;2023-12-14T08:54:21;97052.28;;;5.23;77.50
76195;BME280;64964;48.694;21.206;2023-12-14T08:56:47;97048.03;;;5.22;77.27
76195;BME280;64964;48.694;21.206;2023-12-14T08:59:13;97041.28;;;5.20;77.62
76195;BME280;64964;48.694;21.206;2023-12-14T09:01:38;97039.47;;;5.20;77.54
76195;BME280;64964;48.694;21.206;2023-12-14T09:04:04;97046.69;;;5.27;77.70
76195;BME280;64964;48.694;21.206;2023-12-14T09:06:29;97047.53;;;5.27;77.42
76195;BME280;64964;48.694;21.206;2023-12-14T09:08:55;97054.25;;;5.30;77.41
76195;BME280;64964;48.694;21.206;2023-12-14T09:11:20;97060.31;;;5.30;77.64
76195;BME280;64964;48.694;21.206;2023-12-14T09:13:45;97034.03;;;5.14;77.63
76195;BME280;64964;48.694;21.206;2023-12-14T09:16:11;97060.16;;;5.32;77.63
76195;BME280;64964;48.694;21.206;2023-12-14T09:18:37;97059.66;;;5.28;77.39
76195;BME280;64964;48.694;21.206;2023-12-14T09:21:02;97066.38;;;5.31;77.52
76195;BME280;64964;48.694;21.206;2023-12-14T09:23:29;97060.47;;;5.29;77.23
76195;BME280;64964;48.694;21.206;2023-12-14T09:25:54;97070.16;;;5.36;77.40
76195;BME280;64964;48.694;21.206;2023-12-14T09:28:21;97071.97;;;5.36;77.35
76195;BME280;64964;48.694;21.206;2023-12-14T09:30:46;97068.19;;;5.38;77.10
76195;BME280;64964;48.694;21.206;2023-12-14T09:33:12;97074.25;;;5.39;77.37
76195;BME280;64964;48.694;21.206;2023-12-14T09:35:37;97074.09;;;5.40;77.32
76195;BME280;64964;48.694;21.206;2023-12-14T09:38:05;97071.78;;;5.37;77.14
76195;BME280;64964;48.694;21.206;2023-12-14T09:40:31;97075.44;;;5.44;77.01
76195;BME280;64964;48.694;21.206;2023-12-14T09:42:56;97060.84;;;5.42;76.88
76195;BME280;64964;48.694;21.206;2023-12-14T09:45:27;97051.13;;;5.34;76.77
76195;BME280;64964;48.694;21.206;2023-12-14T09:47:54;97074.94;;;5.49;76.74
76195;BME280;64964;48.694;21.206;2023-12-14T09:50:20;97064.47;;;5.49;76.94
76195;BME280;64964;48.694;21.206;2023-12-14T09:52:46;97066.28;;;5.48;77.02
76195;BME280;64964;48.694;21.206;2023-12-14T09:55:14;97072.31;;;5.49;76.80
76195;BME280;64964;48.694;21.206;2023-12-14T09:57:39;97075.59;;;5.51;76.68
76195;BME280;64964;48.694;21.206;2023-12-14T10:00:05;97076.59;;;5.50;76.76
76195;BME280;64964;48.694;21.206;2023-12-14T10:02:35;97071.50;;;5.40;76.50
76195;BME280;64964;48.694;21.206;2023-12-14T10:05:00;97076.88;;;5.39;76.70
76195;BME280;64964;48.694;21.206;2023-12-14T10:07:26;97090.00;;;5.47;76.84
76195;BME280;64964;48.694;21.206;2023-12-14T10:09:51;97097.72;;;5.48;76.49
76195;BME280;64964;48.694;21.206;2023-12-14T10:12:18;97096.06;;;5.47;76.70
76195;BME280;64964;48.694;21.206;2023-12-14T10:14:44;97104.09;;;5.46;76.98
76195;BME280;64964;48.694;21.206;2023-12-14T10:17:20;97104.91;;;5.46;76.43
76195;BME280;64964;48.694;21.206;2023-12-14T10:19:56;97107.38;;;5.48;76.87
76195;BME280;64964;48.694;21.206;2023-12-14T10:22:22;97106.72;;;5.46;77.27
76195;BME280;64964;48.694;21.206;2023-12-14T10:24:47;97115.09;;;5.49;76.66
76195;BME280;64964;48.694;21.206;2023-12-14T10:27:15;97118.69;;;5.48;76.73
76195;BME280;64964;48.694;21.206;2023-12-14T10:29:41;97103.25;;;5.37;76.50
76195;BME280;64964;48.694;21.206;2023-12-14T10:32:07;97078.28;;;5.17;76.65
76195;BME280;64964;48.694;21.206;2023-12-14T10:34:35;97132.75;;;5.47;76.80
76195;BME280;64964;48.694;21.206;2023-12-14T10:37:01;97133.75;;;5.46;76.54
76195;BME280;64964;48.694;21.206;2023-12-14T10:39:29;97147.66;;;5.47;76.50
76195;BME280;64964;48.694;21.206;2023-12-14T10:41:57;97141.28;;;5.41;76.87
76195;BME280;64964;48.694;21.206;2023-12-14T10:44:26;97151.09;;;5.47;76.94
76195;BME280;64964;48.694;21.206;2023-12-14T10:46:55;97150.97;;;5.49;76.82
76195;BME280;64964;48.694;21.206;2023-12-14T10:49:26;97153.25;;;5.44;76.72
76195;BME280;64964;48.694;21.206;2023-12-14T10:51:52;97124.34;;;5.28;76.54
76195;BME280;64964;48.694;21.206;2023-12-14T10:54:20;97165.88;;;5.48;76.61
76195;BME280;64964;48.694;21.206;2023-12-14T10:56:45;97170.13;;;5.49;76.37
76195;BME280;64964;48.694;21.206;2023-12-14T10:59:15;97178.00;;;5.49;76.91
76195;BME280;64964;48.694;21.206;2023-12-14T11:01:40;97178.00;;;5.49;76.61
76195;BME280;64964;48.694;21.206;2023-12-14T11:04:06;97178.16;;;5.48;76.61
76195;BME280;64964;48.694;21.206;2023-12-14T11:06:33;97138.88;;;5.22;76.52
76195;BME280;64964;48.694;21.206;2023-12-14T11:09:04;97173.22;;;5.45;76.54
76195;BME280;64964;48.694;21.206;2023-12-14T11:12:04;97177.50;;;5.46;76.43
76195;BME280;64964;48.694;21.206;2023-12-14T11:14:29;97187.50;;;5.50;76.98
76195;BME280;64964;48.694;21.206;2023-12-14T11:16:56;97177.78;;;5.43;76.84
76195;BME280;64964;48.694;21.206;2023-12-14T11:24:30;97199.78;;;5.50;77.06
76195;BME280;64964;48.694;21.206;2023-12-14T11:26:55;97199.97;;;5.48;76.71
76195;BME280;64964;48.694;21.206;2023-12-14T11:29:20;97189.56;;;5.39;76.75
76195;BME280;64964;48.694;21.206;2023-12-14T11:31:47;97210.59;;;5.47;76.64
76195;BME280;64964;48.694;21.206;2023-12-14T11:34:15;97208.44;;;5.42;76.82
76195;BME280;64964;48.694;21.206;2023-12-14T11:36:40;97208.75;;;5.39;76.67
76195;BME280;64964;48.694;21.206;2023-12-14T11:39:09;97219.75;;;5.43;76.73
76195;BME280;64964;48.694;21.206;2023-12-14T11:41:35;97214.66;;;5.41;77.03
76195;BME280;64964;48.694;21.206;2023-12-14T11:44:00;97215.34;;;5.43;76.73
76195;BME280;64964;48.694;21.206;2023-12-14T11:46:26;97217.97;;;5.43;76.75
76195;BME280;64964;48.694;21.206;2023-12-14T11:48:51;97220.06;;;5.40;76.65
76195;BME280;64964;48.694;21.206;2023-12-14T11:51:17;97219.38;;;5.38;76.57
76195;BME280;64964;48.694;21.206;2023-12-14T11:53:46;97228.75;;;5.40;76.40
76195;BME280;64964;48.694;21.206;2023-12-14T11:56:14;97229.34;;;5.34;76.70
76195;BME280;64964;48.694;21.206;2023-12-14T11:58:43;97231.31;;;5.32;76.47
76195;BME280;64964;48.694;21.206;2023-12-14T12:03:36;97231.63;;;5.29;76.53
76195;BME280;64964;48.694;21.206;2023-12-14T12:06:02;97243.28;;;5.35;76.49
76195;BME280;64964;48.694;21.206;2023-12-14T12:08:27;97253.94;;;5.33;75.73
76195;BME280;64964;48.694;21.206;2023-12-14T12:10:53;97241.94;;;5.31;76.73
76195;BME280;64964;48.694;21.206;2023-12-14T12:13:20;97240.16;;;5.31;76.67
76195;BME280;64964;48.694;21.206;2023-12-14T12:15:46;97255.91;;;5.31;76.81
76195;BME280;64964;48.694;21.206;2023-12-14T12:18:13;97255.06;;;5.31;76.40
76195;BME280;64964;48.694;21.206;2023-12-14T12:20:39;97223.00;;;5.11;75.93
76195;BME280;64964;48.694;21.206;2023-12-14T12:23:05;97256.03;;;5.30;75.85
76195;BME280;64964;48.694;21.206;2023-12-14T12:25:31;97260.28;;;5.31;76.37
76195;BME280;64964;48.694;21.206;2023-12-14T12:28:01;97263.06;;;5.29;76.30
76195;BME280;64964;48.694;21.206;2023-12-14T12:30:27;97265.53;;;5.31;76.32
76195;BME280;64964;48.694;21.206;2023-12-14T12:32:52;97269.97;;;5.30;76.23
76195;BME280;64964;48.694;21.206;2023-12-14T12:35:22;97254.66;;;5.17;76.12
76195;BME280;64964;48.694;21.206;2023-12-14T12:37:48;97269.75;;;5.23;76.27
76195;BME280;64964;48.694;21.206;2023-12-14T12:40:19;97279.09;;;5.26;76.04
76195;BME280;64964;48.694;21.206;2023-12-14T12:42:45;97286.13;;;5.25;76.23
76195;BME280;64964;48.694;21.206;2023-12-14T12:45:14;97272.97;;;5.17;76.23
76195;BME280;64964;48.694;21.206;2023-12-14T12:47:39;97296.63;;;5.25;76.21
76195;BME280;64964;48.694;21.206;2023-12-14T12:50:05;97264.53;;;5.06;76.63
76195;BME280;64964;48.694;21.206;2023-12-14T12:52:31;97297.44;;;5.26;76.58
76195;BME280;64964;48.694;21.206;2023-12-14T12:54:56;97292.06;;;5.28;76.77
76195;BME280;64964;48.694;21.206;2023-12-14T12:57:21;97296.31;;;5.29;76.39
76195;BME280;64964;48.694;21.206;2023-12-14T12:59:47;97306.66;;;5.30;76.29
76195;BME280;64964;48.694;21.206;2023-12-14T13:02:12;97313.84;;;5.28;76.55